createdAt,value
2019-03-13T00:04:17.051Z,6.11
2019-03-13T00:09:22.227Z,5.99
2019-03-13T00:14:27.556Z,6.19
2019-03-13T00:19:32.772Z,6.53
2019-03-13T00:24:38.041Z,6.30
2019-03-13T00:29:43.283Z,6.14
2019-03-13T00:34:48.481Z,6.01
2019-03-13T00:39:53.666Z,6.14
2019-03-13T00:50:25.287Z,6.18
2019-03-13T00:55:30.478Z,6.39
2019-03-13T01:06:07.367Z,6.84
2019-03-13T01:11:12.614Z,6.89
2019-03-13T01:16:17.936Z,6.92
2019-03-13T01:21:23.662Z,6.81
2019-03-13T01:26:28.881Z,6.88
2019-03-13T01:31:43.006Z,6.44
2019-03-13T01:36:48.322Z,6.26
2019-03-13T01:41:53.473Z,6.29
2019-03-13T01:46:58.713Z,6.39
2019-03-13T01:52:03.962Z,6.44
2019-03-13T01:57:09.294Z,6.47
2019-03-13T02:02:14.623Z,6.48
2019-03-13T02:07:19.922Z,6.61
2019-03-13T02:12:25.228Z,6.75
2019-03-13T02:17:30.602Z,6.82
2019-03-13T02:22:35.869Z,6.90
2019-03-13T02:27:41.133Z,6.92
2019-03-13T02:32:46.380Z,6.85
2019-03-13T02:37:51.711Z,6.83
2019-03-13T02:42:57.202Z,7.00
2019-03-13T02:48:02.490Z,7.01
2019-03-13T02:53:07.729Z,7.12
2019-03-13T02:58:13.021Z,7.24
2019-03-13T03:03:30.021Z,7.19
2019-03-13T03:08:35.283Z,6.97
2019-03-13T03:13:40.651Z,6.84
2019-03-13T03:18:45.841Z,6.95
2019-03-13T03:23:51.095Z,7.22
2019-03-13T03:28:56.338Z,7.00
2019-03-13T03:34:03.106Z,6.87
2019-03-13T03:39:09.396Z,6.87
2019-03-13T03:44:14.858Z,6.80
2019-03-13T03:49:20.184Z,6.71
2019-03-13T03:54:25.516Z,6.76
2019-03-13T03:59:30.802Z,6.91
2019-03-13T04:04:36.180Z,7.05
2019-03-13T04:09:41.449Z,7.01
2019-03-13T04:14:46.620Z,7.04
2019-03-13T04:19:51.893Z,7.04
2019-03-13T04:25:14.375Z,6.94
2019-03-13T04:30:19.711Z,6.88
2019-03-13T04:35:24.920Z,6.90
2019-03-13T04:40:30.098Z,7.02
2019-03-13T04:45:35.429Z,7.07
2019-03-13T04:50:40.702Z,7.14
2019-03-13T04:55:46.010Z,7.29
2019-03-13T05:00:51.234Z,7.37
2019-03-13T05:05:58.597Z,7.28
2019-03-13T05:11:03.870Z,7.05
2019-03-13T05:16:09.083Z,6.93
2019-03-13T05:21:14.315Z,6.98
2019-03-13T05:26:19.690Z,7.09
2019-03-13T05:31:24.946Z,7.10
2019-03-13T05:36:30.211Z,6.98
2019-03-13T05:41:35.563Z,6.85
2019-03-13T05:46:40.754Z,6.82
2019-03-13T05:51:45.942Z,7.03
2019-03-13T05:56:51.272Z,6.91
2019-03-13T06:01:56.463Z,6.83
2019-03-13T06:07:01.726Z,6.79
2019-03-13T06:12:07.063Z,6.79
2019-03-13T06:17:12.359Z,6.81
2019-03-13T06:22:17.643Z,7.02
2019-03-13T06:27:23.920Z,7.25
2019-03-13T06:32:29.338Z,7.33
2019-03-13T06:37:34.682Z,7.45
2019-03-13T06:42:40.185Z,7.52
2019-03-13T06:47:45.526Z,7.44
2019-03-13T06:52:50.759Z,7.42
2019-03-13T06:57:55.983Z,7.32
2019-03-13T07:03:08.347Z,7.11
2019-03-13T07:08:29.163Z,7.00
2019-03-13T07:13:43.825Z,7.04
2019-03-13T07:18:57.913Z,7.17
2019-03-13T07:24:08.553Z,7.25
2019-03-13T07:29:21.793Z,7.30
2019-03-13T07:34:34.963Z,7.51
2019-03-13T07:39:59.057Z,7.86
2019-03-13T07:45:11.094Z,8.16
2019-03-13T07:50:28.484Z,8.68
2019-03-13T07:55:48.663Z,8.81
2019-03-13T08:01:04.546Z,8.68
2019-03-13T08:06:28.598Z,8.81
2019-03-13T08:11:44.211Z,8.74
2019-03-13T08:16:56.859Z,9.07
2019-03-13T08:22:10.978Z,8.86
2019-03-13T08:27:24.943Z,8.74
2019-03-13T08:32:40.947Z,9.40
2019-03-13T08:37:54.123Z,9.11
2019-03-13T08:43:12.350Z,8.68
2019-03-13T08:48:26.240Z,8.83
2019-03-13T08:53:49.592Z,9.08
2019-03-13T08:59:05.458Z,9.15
2019-03-13T09:04:19.386Z,9.39
2019-03-13T09:09:33.954Z,9.59
2019-03-13T09:14:48.455Z,9.40
2019-03-13T09:20:05.589Z,9.33
2019-03-13T09:25:30.077Z,9.26
2019-03-13T09:30:44.847Z,9.31
2019-03-13T09:35:58.803Z,9.81
2019-03-13T09:41:11.304Z,10.52
2019-03-13T09:46:24.907Z,11.05
2019-03-13T09:51:37.885Z,12.40
2019-03-13T09:56:50.793Z,12.73
2019-03-13T10:02:11.722Z,13.14
2019-03-13T10:07:29.275Z,12.77
2019-03-13T10:12:41.167Z,12.61
2019-03-13T10:17:54.903Z,13.12
2019-03-13T10:23:07.534Z,14.37
2019-03-13T10:28:23.027Z,14.00
2019-03-13T10:33:36.903Z,13.75
2019-03-13T10:38:50.970Z,13.91
2019-03-13T10:44:05.892Z,11.87
2019-03-13T10:49:18.348Z,9.91
2019-03-13T10:54:38.609Z,8.99
2019-03-13T10:59:49.126Z,10.34
2019-03-13T11:05:02.908Z,12.83
2019-03-13T11:10:14.942Z,14.00
2019-03-13T11:15:28.982Z,14.64
2019-03-13T11:20:42.943Z,15.65
2019-03-13T11:25:55.692Z,15.21
2019-03-13T11:31:17.799Z,14.96
2019-03-13T11:36:35.034Z,14.48
2019-03-13T11:41:56.446Z,14.85
2019-03-13T11:47:10.327Z,15.11
2019-03-13T11:52:25.067Z,15.10
2019-03-13T11:57:38.904Z,14.89
2019-03-13T12:02:56.330Z,15.28
2019-03-13T12:08:20.659Z,15.20
2019-03-13T12:13:36.681Z,14.72
2019-03-13T12:18:48.735Z,14.70
2019-03-13T12:24:01.972Z,14.42
2019-03-13T12:29:16.031Z,13.82
2019-03-13T12:34:28.255Z,13.63
2019-03-13T12:39:41.103Z,13.06
2019-03-13T12:44:57.223Z,11.80
2019-03-13T12:50:09.442Z,10.64
2019-03-13T12:55:22.438Z,11.86
2019-03-13T13:00:37.763Z,12.77
2019-03-13T13:05:54.578Z,12.86
2019-03-13T13:11:08.507Z,13.43
2019-03-13T13:16:21.969Z,13.58
2019-03-13T13:21:27.255Z,13.20
2019-03-13T13:26:32.477Z,13.55
2019-03-13T13:31:37.682Z,13.39
2019-03-13T13:36:42.972Z,13.10
2019-03-13T13:41:50.794Z,13.11
2019-03-13T13:46:56.083Z,12.94
2019-03-13T13:52:01.313Z,11.98
2019-03-13T13:57:06.607Z,11.45
2019-03-13T14:02:13.971Z,12.15
2019-03-13T14:07:19.343Z,13.05
2019-03-13T14:12:24.712Z,13.05
2019-03-13T14:17:32.374Z,12.90
2019-03-13T14:22:37.678Z,12.80
2019-03-13T14:27:43.115Z,13.41
2019-03-13T14:32:50.907Z,13.56
2019-03-13T14:37:56.279Z,13.09
2019-03-13T14:43:01.652Z,12.82
2019-03-13T14:48:06.968Z,12.87
2019-03-13T14:53:13.992Z,12.88
2019-03-13T14:58:19.295Z,13.02
2019-03-13T15:03:25.003Z,12.68
2019-03-13T15:08:30.324Z,12.46
2019-03-13T15:13:35.753Z,12.11
2019-03-13T15:18:41.035Z,12.07
2019-03-13T15:23:46.563Z,12.11
2019-03-13T15:28:51.752Z,11.71
2019-03-13T15:33:58.158Z,11.38
2019-03-13T15:39:03.703Z,11.21
2019-03-13T15:44:08.975Z,11.34
2019-03-13T15:49:14.262Z,11.13
2019-03-13T15:54:19.627Z,10.87
2019-03-13T15:59:27.887Z,10.70
2019-03-13T16:04:33.327Z,10.28
2019-03-13T16:09:38.850Z,10.20
2019-03-13T16:14:45.308Z,10.19
2019-03-13T16:19:50.783Z,10.18
2019-03-13T16:24:56.136Z,10.11
2019-03-13T16:30:01.646Z,9.94
2019-03-13T16:35:07.702Z,9.80
2019-03-13T16:40:14.330Z,9.68
2019-03-13T16:45:19.933Z,9.62
2019-03-13T16:50:25.240Z,9.66
2019-03-13T16:55:30.636Z,9.51
2019-03-13T17:00:37.909Z,9.51
2019-03-13T17:05:43.254Z,9.62
2019-03-13T17:10:48.618Z,9.66
2019-03-13T17:15:53.988Z,9.54
2019-03-13T17:21:01.286Z,9.37
2019-03-13T17:26:09.583Z,9.24
2019-03-13T17:31:15.055Z,9.23
2019-03-13T17:36:20.270Z,9.15
2019-03-13T17:41:25.557Z,9.08
2019-03-13T17:46:30.877Z,9.03
2019-03-13T17:51:36.188Z,9.01
2019-03-13T17:56:41.478Z,8.97
2019-03-13T18:01:46.731Z,9.00
2019-03-13T18:06:52.123Z,9.02
2019-03-13T18:11:57.422Z,9.02
2019-03-13T18:17:02.823Z,8.82
2019-03-13T18:22:08.018Z,8.75
2019-03-13T18:27:14.368Z,8.71
2019-03-13T18:32:19.888Z,8.75
2019-03-13T18:37:25.618Z,8.83
2019-03-13T18:42:34.251Z,8.79
2019-03-13T18:47:40.769Z,8.81
2019-03-13T18:52:46.159Z,8.76
2019-03-13T18:57:51.791Z,8.76
2019-03-13T19:02:57.749Z,8.74
2019-03-13T19:08:03.012Z,8.73
2019-03-13T19:13:08.688Z,8.76
2019-03-13T19:18:13.994Z,8.74
2019-03-13T19:23:19.383Z,8.68
2019-03-13T19:28:24.689Z,8.59
2019-03-13T19:33:31.288Z,8.51
2019-03-13T19:38:36.567Z,8.55
2019-03-13T19:43:42.009Z,8.53
2019-03-13T19:48:47.394Z,8.50
2019-03-13T19:53:52.888Z,8.56
2019-03-13T19:58:58.189Z,8.59
2019-03-13T20:04:03.625Z,8.68
2019-03-13T20:09:09.563Z,8.79
2019-03-13T20:14:14.970Z,8.78
2019-03-13T20:19:20.245Z,8.56
2019-03-13T20:24:25.515Z,8.43
2019-03-13T20:29:30.826Z,8.38
2019-03-13T20:34:36.227Z,8.30
2019-03-13T20:39:41.625Z,8.25
2019-03-13T20:44:46.883Z,8.35
2019-03-13T20:49:52.182Z,8.45
2019-03-13T20:54:57.896Z,8.54
2019-03-13T21:00:03.375Z,8.57
2019-03-13T21:05:08.896Z,8.50
2019-03-13T21:10:14.486Z,8.43
2019-03-13T21:15:20.012Z,8.45
2019-03-13T21:20:25.607Z,8.51
2019-03-13T21:25:30.882Z,8.48
2019-03-13T21:30:36.147Z,8.20
2019-03-13T21:35:43.842Z,7.98
2019-03-13T21:40:49.169Z,8.06
2019-03-13T21:45:54.576Z,8.22
2019-03-13T21:50:59.887Z,8.19
2019-03-13T21:56:05.215Z,8.22
2019-03-13T22:01:19.671Z,8.32
2019-03-13T22:06:28.242Z,8.41
2019-03-13T22:11:24.494Z,8.59
2019-03-13T22:16:29.895Z,8.73
2019-03-13T22:21:35.147Z,8.77
2019-03-13T22:26:40.435Z,8.74
2019-03-13T22:31:45.636Z,8.54
2019-03-13T22:36:50.818Z,8.60
2019-03-13T22:41:58.302Z,8.64
2019-03-13T22:47:03.618Z,8.64
2019-03-13T22:52:08.883Z,8.64
2019-03-13T22:57:14.188Z,8.53
2019-03-13T23:02:19.711Z,8.51
2019-03-13T23:07:25.655Z,8.50
2019-03-13T23:12:30.996Z,8.52
2019-03-13T23:17:36.236Z,8.56
2019-03-13T23:22:41.494Z,8.60
2019-03-13T23:27:46.705Z,8.63
2019-03-13T23:32:52.030Z,8.67
2019-03-13T23:37:57.244Z,8.77
2019-03-13T23:43:02.485Z,8.68
2019-03-13T23:48:07.840Z,8.54
2019-03-13T23:53:13.198Z,8.52
2019-03-13T23:58:18.396Z,8.62
